Search for airport 
image banner adimage banner ad
image banner ad

EKTB - Torshavn/Bodanes

Located in Torshavn, Faroe Islands

ICAO - EKTB, IATA -

Data provided by Airmate  

General information

Coordinates: N62°1'18" W6°45'27"
Elevation is 68 feet MSL.
Magnetic variation is -8.2° East
View others Airports in (unassigned)

Operational data

Special qualification required
Current time UTC:
Current local time:
Weather at : EKVG - Vagar ( 27 km )
METAR: EKVG 011950Z AUTO 00000KT 9999 FEW010/// SCT017/// 07/07 Q1028
TAF: TAF EKVG 011422Z 0115/0124 24017G27KT 7000 -RADZ BR OVC004 TEMPO 0115/0121 1200 DZ BR VV001 BECMG 0116/0117 31007KT
View NOTAMs / SUP AIP / TFR affecting this airport [VIEW]
Communications frequencies: [VIEW]

Runways:

Airport contact information

Address: Torshavn Faroe Islands

Satellite view of EKTB